Time;durP1;ratioP1;P1;durP2;ratioP2;P2;SDS_P1;SDS_P2;PMS_P1;PMS_P2;Temp;Humidity;BMP_temperature;BMP_pressure;BME280_temperature;BME280_humidity;BME280_pressure;Samples;Min_cycle;Max_cycle;Signal;HPM_P1;HPM_P2
2021/03/20 00:06:44;;;;;;;18.05;5.75;;;;;;;-2.90;68.96;99003.63;507983;1101;104341;-42
2021/03/20 00:16:50;;;;;;;15.15;4.97;;;;;;;-3.01;68.10;99014.12;507986;1102;104670;-41
2021/03/20 00:26:55;;;;;;;14.03;4.33;;;;;;;-3.16;68.05;99026.61;508043;1101;104341;-42
2021/03/20 00:37:00;;;;;;;32.45;9.05;;;;;;;-3.32;68.05;99021.92;507962;1101;104380;-40
2021/03/20 00:47:03;;;;;;;21.47;5.73;;;;;;;-3.54;67.68;99030.73;507804;1102;104265;-40
2021/03/20 00:57:08;;;;;;;12.87;5.73;;;;;;;-3.72;67.65;99029.69;508112;1102;104341;-40
2021/03/20 01:07:13;;;;;;;13.27;5.90;;;;;;;-3.91;68.10;99038.16;508049;1102;104715;-40
2021/03/20 01:17:18;;;;;;;14.33;4.37;;;;;;;-4.01;68.07;99039.89;508064;1102;104409;-39
2021/03/20 01:27:23;;;;;;;13.27;4.83;;;;;;;-4.12;68.10;99043.34;507881;1101;104350;-40
2021/03/20 01:37:28;;;;;;;15.30;4.67;;;;;;;-4.23;68.35;99052.92;507825;1101;104354;-40
2021/03/20 01:47:34;;;;;;;23.33;6.77;;;;;;;-4.49;68.32;99055.87;508178;1102;104383;-40
2021/03/20 01:57:44;;;;;;;18.80;6.10;;;;;;;-4.84;68.87;99048.36;507821;1102;104329;-40
2021/03/20 02:07:49;;;;;;;22.00;7.43;;;;;;;-5.07;68.59;99063.06;507809;1101;104341;-39
2021/03/20 02:17:56;;;;;;;14.30;5.23;;;;;;;-5.25;69.36;99067.06;508863;1096;104393;-39
2021/03/20 02:28:40;;;;;;;16.87;6.67;;;;;;;-5.34;69.99;99067.80;507920;1102;104313;-40
2021/03/20 02:38:44;;;;;;;19.80;6.83;;;;;;;-5.47;70.04;99085.13;507939;1102;104332;-41
2021/03/20 02:48:50;;;;;;;17.73;7.43;;;;;;;-5.68;70.58;99090.14;508070;1101;104895;-41
2021/03/20 02:58:56;;;;;;;26.15;11.40;;;;;;;-5.80;71.12;99085.92;507937;1102;104670;-41
2021/03/20 03:09:03;;;;;;;22.55;7.80;;;;;;;-5.78;72.30;99100.33;507990;1101;104313;-40
2021/03/20 03:19:13;;;;;;;17.07;5.67;;;;;;;-5.64;73.22;99117.34;507912;1102;104328;-39
2021/03/20 03:29:23;;;;;;;25.50;9.30;;;;;;;-5.52;73.09;99121.55;508282;1102;104357;-41
2021/03/20 03:39:32;;;;;;;19.00;8.30;;;;;;;-5.52;73.14;99125.88;507950;1102;104401;-42
2021/03/20 03:49:37;;;;;;;18.57;6.97;;;;;;;-5.63;73.67;99127.52;507915;1102;104703;-42
2021/03/20 03:59:44;;;;;;;18.03;8.00;;;;;;;-5.73;74.78;99139.44;507941;1102;104665;-43
2021/03/20 04:09:50;;;;;;;17.03;6.37;;;;;;;-5.81;75.11;99141.77;508062;1102;104389;-41
2021/03/20 04:19:57;;;;;;;16.90;6.65;;;;;;;-5.85;75.07;99152.41;508109;1101;104347;-40
2021/03/20 04:30:09;;;;;;;14.95;7.05;;;;;;;-5.83;75.28;99166.81;508044;1101;104389;-45
2021/03/20 04:40:13;;;;;;;13.80;5.73;;;;;;;-5.89;75.46;99169.85;507939;1102;104635;-40
2021/03/20 04:50:22;;;;;;;16.43;7.63;;;;;;;-5.95;75.52;99180.61;507855;1101;104310;-42
2021/03/20 05:00:25;;;;;;;20.52;7.95;;;;;;;-6.09;75.56;99180.80;507968;1101;104597;-42
2021/03/20 05:10:34;;;;;;;29.43;11.30;;;;;;;-6.10;75.16;99192.03;508100;1101;105425;-43
2021/03/20 05:20:39;;;;;;;33.08;12.50;;;;;;;-6.04;74.91;99191.59;508018;1101;104780;-40
2021/03/20 05:30:43;;;;;;;22.97;11.37;;;;;;;-5.63;75.34;99209.96;508328;1101;104338;-40
2021/03/20 05:40:49;;;;;;;27.67;10.77;;;;;;;-5.47;75.23;99213.96;508038;1102;104804;-42
2021/03/20 05:51:20;;;;;;;18.07;8.53;;;;;;;-4.53;74.92;99222.20;508236;1102;104334;-40
2021/03/20 06:01:26;;;;;;;27.90;15.40;;;;;;;-4.69;74.19;99239.84;507889;1102;104262;-40
2021/03/20 06:11:34;;;;;;;35.30;14.40;;;;;;;-4.75;74.44;99250.61;508014;1101;104348;-42
2021/03/20 06:21:41;;;;;;;26.70;12.70;;;;;;;-3.83;74.90;99255.36;508133;1101;104332;-40
2021/03/20 06:31:48;;;;;;;29.13;12.43;;;;;;;-3.39;74.01;99261.28;508079;1101;104792;-42
2021/03/20 06:41:51;;;;;;;23.83;12.13;;;;;;;-2.37;73.40;99264.78;508009;1101;104739;-41
2021/03/20 06:51:58;;;;;;;31.83;12.80;;;;;;;-2.73;73.30;99274.74;508305;1101;104450;-41
2021/03/20 07:02:06;;;;;;;49.83;21.37;;;;;;;-1.53;73.42;99273.78;508051;1101;104367;-40
2021/03/20 07:12:09;;;;;;;37.53;14.47;;;;;;;-0.09;72.53;99282.92;508013;1101;104319;-42
2021/03/20 07:22:25;;;;;;;24.77;13.70;;;;;;;0.06;71.38;99279.83;508155;1101;104319;-41
2021/03/20 07:32:42;;;;;;;26.35;13.50;;;;;;;-0.05;69.07;99291.23;508018;1101;104674;-39
2021/03/20 07:42:48;;;;;;;23.03;11.53;;;;;;;-0.18;68.01;99312.39;508054;1101;104604;-41
2021/03/20 07:53:11;;;;;;;22.60;12.97;;;;;;;0.00;69.41;99312.44;507930;1102;104428;-41
2021/03/20 08:03:20;;;;;;;35.30;15.87;;;;;;;-0.36;68.43;99321.91;507941;1101;105517;-39
2021/03/20 08:13:30;;;;;;;34.65;16.25;;;;;;;0.23;67.69;99325.83;507946;1102;104348;-40
2021/03/20 08:23:48;;;;;;;24.45;13.80;;;;;;;0.28;66.87;99326.23;507880;1102;104740;-40
2021/03/20 08:34:05;;;;;;;32.80;14.37;;;;;;;0.46;66.32;99319.23;507921;1101;104699;-41
2021/03/20 08:44:26;;;;;;;23.43;13.60;;;;;;;0.54;65.81;99326.31;507897;1101;104628;-41
2021/03/20 08:54:50;;;;;;;28.05;11.45;;;;;;;1.05;65.61;99330.81;508288;1102;104347;-40
2021/03/20 09:04:59;;;;;;;12.87;8.50;;;;;;;1.00;65.43;99327.03;507920;1102;104377;-40
2021/03/20 09:15:07;;;;;;;23.90;12.13;;;;;;;1.25;63.13;99335.84;507934;1101;104451;-41
2021/03/20 09:25:20;;;;;;;26.70;12.50;;;;;;;1.36;63.47;99344.20;507928;1101;104386;-41
2021/03/20 09:35:24;;;;;;;14.27;8.07;;;;;;;1.58;60.77;99353.30;507897;1101;104686;-41
2021/03/20 09:45:28;;;;;;;11.77;5.47;;;;;;;1.67;59.48;99356.78;507949;1101;104335;-40
2021/03/20 09:55:44;;;;;;;18.00;7.87;;;;;;;2.13;57.32;99365.97;507921;1101;104332;-39
2021/03/20 10:06:10;;;;;;;15.37;7.07;;;;;;;2.44;54.90;99366.21;507963;1101;104338;-42
2021/03/20 10:16:23;;;;;;;11.50;6.70;;;;;;;2.41;53.44;99369.95;507968;1102;104632;-40
2021/03/20 10:26:32;;;;;;;12.10;6.43;;;;;;;2.56;52.19;99374.55;508016;1101;104326;-40
2021/03/20 10:36:37;;;;;;;7.65;3.90;;;;;;;2.41;48.07;99383.02;508129;1102;104634;-40
2021/03/20 10:46:46;;;;;;;9.93;5.00;;;;;;;2.56;47.07;99377.97;508418;1101;104670;-41
2021/03/20 10:56:55;;;;;;;6.40;2.87;;;;;;;2.41;46.63;99376.97;507885;1102;104341;-43
2021/03/20 11:07:02;;;;;;;8.17;3.77;;;;;;;2.86;49.02;99378.37;508094;1102;104641;-40
2021/03/20 11:17:09;;;;;;;9.37;4.50;;;;;;;3.10;46.73;99367.93;508212;1102;104613;-42
2021/03/20 11:27:14;;;;;;;13.63;5.93;;;;;;;1.92;46.96;99366.36;507960;1101;105858;-41
2021/03/20 11:37:26;;;;;;;10.17;5.87;;;;;;;0.92;47.40;99372.03;507922;1102;104813;-42
2021/03/20 11:47:33;;;;;;;8.90;4.95;;;;;;;0.76;48.20;99383.14;508173;1102;104338;-40
2021/03/20 11:57:40;;;;;;;17.57;7.23;;;;;;;0.12;50.79;99380.66;507948;1102;104709;-40
2021/03/20 12:07:46;;;;;;;10.80;5.37;;;;;;;-0.29;51.40;99387.92;507856;1102;104389;-41
2021/03/20 12:17:52;;;;;;;13.80;5.90;;;;;;;-0.54;52.26;99368.58;507956;1101;104636;-42
2021/03/20 12:28:38;;;;;;;14.03;6.03;;;;;;;-0.42;52.17;99353.66;507970;1102;104318;-40
2021/03/20 12:38:45;;;;;;;8.77;4.90;;;;;;;-0.48;51.90;99359.39;507873;1101;105992;-41
2021/03/20 12:48:49;;;;;;;9.30;4.40;;;;;;;-0.36;51.17;99347.89;507956;1102;104723;-39
2021/03/20 12:58:54;;;;;;;9.37;4.73;;;;;;;-0.26;51.04;99338.26;508013;1102;105438;-39
2021/03/20 13:08:59;;;;;;;11.50;5.63;;;;;;;-0.20;51.14;99345.51;507893;1101;105517;-40
2021/03/20 13:19:05;;;;;;;11.53;5.37;;;;;;;-0.27;49.33;99341.82;507982;1102;104450;-39
2021/03/20 13:29:10;;;;;;;17.47;6.40;;;;;;;-0.15;49.48;99334.67;507899;1102;104717;-41
2021/03/20 13:39:15;;;;;;;15.80;7.03;;;;;;;-0.13;49.47;99330.97;507825;1102;104342;-40
2021/03/20 13:49:20;;;;;;;24.30;9.47;;;;;;;0.05;50.27;99319.80;507800;1101;104736;-41
2021/03/20 13:59:24;;;;;;;21.37;9.17;;;;;;;0.23;49.61;99318.02;507913;1102;104309;-41
2021/03/20 14:09:29;;;;;;;15.27;6.83;;;;;;;-0.15;47.89;99319.89;507973;1102;104342;-40
2021/03/20 14:19:34;;;;;;;11.83;4.27;;;;;;;-0.25;47.94;99316.50;507987;1102;104345;-40
2021/03/20 14:29:39;;;;;;;8.30;4.57;;;;;;;-0.17;46.94;99316.63;508189;1102;104262;-41
2021/03/20 14:39:44;;;;;;;10.40;4.75;;;;;;;-0.02;46.50;99291.76;508099;1101;104379;-40
2021/03/20 14:49:49;;;;;;;13.17;5.93;;;;;;;0.20;47.28;99274.92;507907;1102;104325;-41
2021/03/20 14:59:54;;;;;;;17.93;6.70;;;;;;;0.14;47.94;99275.52;508088;1102;104318;-41
2021/03/20 15:09:59;;;;;;;17.50;7.00;;;;;;;-0.03;48.07;99276.31;507773;1101;104692;-40
2021/03/20 15:20:04;;;;;;;15.80;7.70;;;;;;;-0.21;48.46;99276.30;507902;1102;104281;-42
2021/03/20 15:30:10;;;;;;;20.53;8.87;;;;;;;-0.27;49.14;99279.45;507981;1102;104399;-42
2021/03/20 15:40:23;;;;;;;14.55;7.00;;;;;;;-0.52;49.24;99264.53;508008;1101;104332;-40
2021/03/20 15:50:31;;;;;;;12.67;5.83;;;;;;;-0.69;49.04;99258.33;508185;1102;104711;-42
2021/03/20 16:00:36;;;;;;;10.97;5.33;;;;;;;-0.85;49.06;99252.91;508062;1102;104783;-40
2021/03/20 16:10:45;;;;;;;19.37;6.50;;;;;;;-0.88;49.50;99258.39;508050;1101;104334;-42
2021/03/20 16:20:53;;;;;;;18.57;9.27;;;;;;;-1.19;50.29;99255.98;507877;1102;105448;-40
2021/03/20 16:31:00;;;;;;;19.73;9.93;;;;;;;-1.45;50.24;99245.37;508010;1102;104456;-42
2021/03/20 16:41:05;;;;;;;24.10;9.67;;;;;;;-1.80;50.83;99239.94;507981;1101;104354;-40
2021/03/20 16:51:11;;;;;;;33.87;9.60;;;;;;;-1.98;51.54;99230.23;508218;1102;104705;-40
2021/03/20 17:01:16;;;;;;;31.07;14.13;;;;;;;-2.26;52.06;99242.20;507917;1100;104374;-42
2021/03/20 17:11:23;;;;;;;54.53;22.73;;;;;;;-2.38;52.08;99232.88;507958;1101;104389;-41
2021/03/20 17:21:27;;;;;;;60.05;24.50;;;;;;;-2.50;53.28;99239.95;507954;1101;104370;-42
2021/03/20 17:31:32;;;;;;;28.03;13.73;;;;;;;-2.46;53.31;99235.33;508059;1101;104335;-41
2021/03/20 17:41:38;;;;;;;62.17;31.13;;;;;;;-2.46;53.78;99235.33;507945;1102;104791;-41
2021/03/20 17:51:42;;;;;;;72.60;37.45;;;;;;;-2.61;54.11;99240.03;507953;1102;104345;-39
2021/03/20 18:01:46;;;;;;;70.93;32.73;;;;;;;-2.85;54.34;99230.00;507850;1102;104354;-39
2021/03/20 18:11:51;;;;;;;81.57;30.47;;;;;;;-3.05;55.05;99227.47;507954;1101;104322;-40
2021/03/20 18:21:56;;;;;;;145.50;48.40;;;;;;;-3.23;55.47;99222.87;508170;1102;104638;-41
2021/03/20 18:32:01;;;;;;;190.07;63.00;;;;;;;-3.33;55.74;99219.40;507835;1101;104370;-41
2021/03/20 18:42:08;;;;;;;151.93;53.03;;;;;;;-3.44;56.57;99212.55;507780;1101;105197;-40
2021/03/20 18:52:13;;;;;;;208.50;67.03;;;;;;;-3.51;56.63;99213.19;507747;1101;104674;-42
2021/03/20 19:02:17;;;;;;;133.50;35.07;;;;;;;-3.63;56.77;99207.23;507919;1101;104711;-42
2021/03/20 19:12:23;;;;;;;138.00;41.73;;;;;;;-3.74;57.06;99197.80;508046;1101;104603;-39
2021/03/20 19:22:27;;;;;;;138.40;52.00;;;;;;;-3.78;57.41;99196.41;507885;1101;104348;-41
2021/03/20 19:32:32;;;;;;;212.17;83.10;;;;;;;-3.82;57.83;99189.83;508067;1101;104355;-42
2021/03/20 19:42:37;;;;;;;238.73;93.13;;;;;;;-3.81;58.29;99185.47;507995;1101;104701;-42
2021/03/20 19:52:41;;;;;;;187.83;73.27;;;;;;;-3.95;58.23;99176.28;508070;1102;104341;-41
2021/03/20 20:02:47;;;;;;;133.77;53.57;;;;;;;-4.01;57.82;99176.78;508068;1101;104831;-39
2021/03/20 20:12:51;;;;;;;138.07;55.07;;;;;;;-4.02;58.60;99173.38;507940;1101;104454;-40
2021/03/20 20:22:59;;;;;;;100.17;38.90;;;;;;;-4.19;58.82;99158.41;508199;1102;104400;-40
2021/03/20 20:33:04;;;;;;;109.57;37.37;;;;;;;-4.35;59.04;99151.06;507996;1102;105949;-41
2021/03/20 20:43:13;;;;;;;111.03;38.20;;;;;;;-4.30;59.39;99149.88;508030;1101;104297;-42
2021/03/20 20:53:18;;;;;;;105.75;39.75;;;;;;;-4.30;59.20;99135.20;508019;1101;104383;-42
2021/03/20 21:03:24;;;;;;;110.93;42.23;;;;;;;-4.55;59.63;99141.50;508007;1102;104321;-40
2021/03/20 21:13:32;;;;;;;105.78;44.15;;;;;;;-4.53;59.95;99143.96;507984;1102;104338;-40
2021/03/20 21:23:37;;;;;;;98.70;38.40;;;;;;;-4.54;60.49;99137.16;508026;1102;104489;-39
2021/03/20 21:33:41;;;;;;;90.37;37.27;;;;;;;-4.65;60.86;99136.27;508102;1101;104335;-39
2021/03/20 21:43:47;;;;;;;85.53;32.20;;;;;;;-4.51;60.77;99124.83;507805;1101;104338;-40
2021/03/20 22:04:11;;;;;;;84.00;34.53;;;;;;;-4.66;61.15;99098.50;508162;1101;104779;-40
2021/03/20 22:14:16;;;;;;;81.07;35.77;;;;;;;-4.75;61.51;99080.33;507997;1102;104672;-40
2021/03/20 22:24:21;;;;;;;61.20;29.30;;;;;;;-4.70;61.35;99078.23;508161;1102;104933;-40
2021/03/20 22:34:26;;;;;;;66.10;26.93;;;;;;;-4.75;61.62;99064.85;507703;1101;104674;-40
2021/03/20 22:44:31;;;;;;;50.40;22.37;;;;;;;-4.77;61.88;99046.92;507965;1101;104634;-40
2021/03/20 22:54:36;;;;;;;56.73;25.10;;;;;;;-4.81;61.96;99040.37;508067;1102;104338;-40
2021/03/20 23:04:40;;;;;;;50.53;21.17;;;;;;;-4.95;61.96;99031.17;507867;1102;104631;-39
2021/03/20 23:14:45;;;;;;;38.13;18.57;;;;;;;-4.94;62.70;99013.94;507854;1102;104315;-40
2021/03/20 23:24:50;;;;;;;49.33;23.20;;;;;;;-4.91;63.09;99000.79;507936;1102;104335;-42
2021/03/20 23:34:54;;;;;;;56.70;22.00;;;;;;;-4.89;63.28;98992.92;507780;1101;104358;-40
2021/03/20 23:44:59;;;;;;;47.15;19.05;;;;;;;-4.86;63.79;98990.09;508148;1102;104335;-43
2021/03/20 23:55:04;;;;;;;40.43;17.03;;;;;;;-4.92;63.88;98965.63;507949;1102;104780;-40
